KFAF/FAF METAR and TAF weather

Enter ICAO airport designator
Station Type Date Time Source
KFAF METAR 2019/04/25 00:56 UTC NOAA

KFAF 250056Z AUTO 10003KT 10SM CLR 20/13 A2985 RMK AO2 SLP111 T01970132 $


Station Type Date Time Source
KFAF Decoded METAR 2019/04/25 00:56 UTC NOAA

Fort Eustis / Felker, VA, United States (KFAF) 37-08N 076-37W
Apr 24, 2019 - 08:56 PM EDT / 2019.04.25 0056 UTC
Wind: from the E (100 degrees) at 3 MPH (3 KT):0
Visibility: 10 mile(s):0
Sky conditions: clear
Temperature: 67.5 F (19.7 C)
Dew Point: 55.8 F (13.2 C)
Relative Humidity: 66%
Pressure (altimeter): 29.85 in. Hg (1010 hPa)
ob: KFAF 250056Z AUTO 10003KT 10SM CLR 20/13 A2985 RMK AO2 SLP111 T01970132
cycle: 1

Station Type Date Time Source
KFAF TAF 2019/04/24 18:09 UTC NOAA

TAF KFAF 241800Z 2418/2524 VRB06KT 9999 SCT150 QNH2979INS
BECMG 2502/2503 10009KT 9999 SCT030 BKN150 QNH2980INS TX29/2419Z TN16/2509Z LAST NO
AMDS AFT 2503 NEXT 2510

Example: see airport list